Time;durP1;ratioP1;P1;durP2;ratioP2;P2;SDS_P1;SDS_P2;PMS_P1;PMS_P2;Temp;Humidity;BMP_temperature;BMP_pressure;BME280_temperature;BME280_humidity;BME280_pressure;Samples;Min_cycle;Max_cycle;Signal;HPM_P1;HPM_P2
2022/03/03 00:02:20;;;;;;;12.40;9.37;;;;;;;-4.55;100.00;96733.69;5008138;28;20487;-72
2022/03/03 00:04:47;;;;;;;16.17;11.63;;;;;;;-4.64;100.00;96737.63;5008488;28;20961;-73
2022/03/03 00:07:14;;;;;;;12.70;10.50;;;;;;;-4.53;100.00;96726.56;4993315;28;20870;-75
2022/03/03 00:09:41;;;;;;;10.77;8.87;;;;;;;-4.81;100.00;96688.44;5008420;28;20447;-72
2022/03/03 00:12:08;;;;;;;14.43;9.60;;;;;;;-4.50;100.00;96729.47;5007934;28;20782;-73
2022/03/03 00:14:34;;;;;;;14.90;8.97;;;;;;;-4.57;100.00;96725.41;4991783;28;20572;-73
2022/03/03 00:17:01;;;;;;;14.43;9.50;;;;;;;-4.66;100.00;96706.09;4991801;28;20475;-73
2022/03/03 00:19:28;;;;;;;12.43;9.60;;;;;;;-4.54;100.00;96730.94;4991923;28;20536;-72
2022/03/03 00:21:54;;;;;;;17.73;10.60;;;;;;;-4.65;100.00;96715.41;4991957;28;20929;-73
2022/03/03 00:24:21;;;;;;;10.83;9.60;;;;;;;-4.89;100.00;96733.38;4991885;28;20496;-73
2022/03/03 00:26:48;;;;;;;11.23;9.50;;;;;;;-4.92;100.00;96736.41;4991908;28;20433;-73
2022/03/03 00:29:14;;;;;;;10.73;8.83;;;;;;;-4.77;100.00;96736.78;4994053;28;20804;-73
2022/03/03 00:31:41;;;;;;;11.70;9.83;;;;;;;-4.77;100.00;96726.47;5008662;28;20544;-73
2022/03/03 00:34:08;;;;;;;9.87;8.97;;;;;;;-4.74;100.00;96724.47;4980207;28;20485;-72
2022/03/03 00:36:34;;;;;;;9.40;7.67;;;;;;;-5.01;100.00;96701.59;4978247;28;20525;-73
2022/03/03 00:39:03;;;;;;;10.23;8.17;;;;;;;-4.81;100.00;96730.50;4995384;28;20468;-73
2022/03/03 00:41:30;;;;;;;12.13;8.00;;;;;;;-5.08;100.00;96700.88;4991413;28;21029;-73
2022/03/03 00:43:57;;;;;;;9.23;7.60;;;;;;;-5.03;100.00;96715.72;4991569;28;20564;-72
2022/03/03 00:46:25;;;;;;;10.67;9.00;;;;;;;-5.10;100.00;96744.13;5007806;28;20441;-73
2022/03/03 00:48:54;;;;;;;13.07;9.27;;;;;;;-5.41;100.00;96717.53;5007776;28;20980;-73
2022/03/03 00:51:22;;;;;;;13.87;9.57;;;;;;;-5.36;100.00;96740.84;4992969;28;20500;-73
2022/03/03 00:53:50;;;;;;;9.93;8.47;;;;;;;-5.60;100.00;96710.03;5007359;28;20467;-72
2022/03/03 00:56:18;;;;;;;9.17;8.13;;;;;;;-5.33;100.00;96733.72;5008148;28;20480;-73
2022/03/03 00:58:45;;;;;;;11.40;8.33;;;;;;;-5.25;100.00;96733.41;4991300;28;20441;-72
2022/03/03 01:01:13;;;;;;;10.20;7.97;;;;;;;-5.23;100.00;96732.19;4992662;28;20795;-73
2022/03/03 01:03:40;;;;;;;10.00;8.67;;;;;;;-5.11;100.00;96733.03;5007350;28;20461;-72
2022/03/03 01:06:08;;;;;;;11.23;8.37;;;;;;;-5.08;100.00;96730.03;4998628;28;20789;-72
2022/03/03 01:08:36;;;;;;;9.63;8.40;;;;;;;-5.15;100.00;96713.09;4987303;28;20540;-72
2022/03/03 01:11:04;;;;;;;11.30;8.53;;;;;;;-5.00;100.00;96720.44;5007242;28;20819;-72
2022/03/03 01:13:31;;;;;;;9.97;8.97;;;;;;;-5.09;100.00;96712.97;4991332;28;21089;-72
2022/03/03 01:15:57;;;;;;;9.37;8.40;;;;;;;-5.17;100.00;96721.03;5007466;28;20494;-72
2022/03/03 01:18:24;;;;;;;10.07;8.77;;;;;;;-5.31;100.00;96693.84;4991301;28;20442;-72
2022/03/03 01:20:54;;;;;;;8.73;7.83;;;;;;;-5.11;100.00;96720.16;5007465;28;20435;-72
2022/03/03 01:23:21;;;;;;;12.20;8.80;;;;;;;-5.08;100.00;96706.03;4991094;28;20535;-72
2022/03/03 01:25:48;;;;;;;14.87;7.93;;;;;;;-5.37;100.00;96667.16;4994538;28;20464;-72
2022/03/03 01:28:15;;;;;;;9.97;8.30;;;;;;;-5.29;100.00;96694.41;4995055;28;20441;-72
2022/03/03 01:30:42;;;;;;;8.97;8.17;;;;;;;-5.19;100.00;96689.53;4994946;28;20476;-72
2022/03/03 01:33:09;;;;;;;9.10;7.00;;;;;;;-5.45;100.00;96676.97;5011311;28;20466;-72
2022/03/03 01:35:36;;;;;;;8.63;7.13;;;;;;;-5.39;100.00;96702.66;4994971;28;20571;-72
2022/03/03 01:38:02;;;;;;;12.77;8.80;;;;;;;-5.68;100.00;96705.94;4997115;28;20858;-72
2022/03/03 01:40:29;;;;;;;9.77;7.50;;;;;;;-5.87;100.00;96674.25;4994922;28;20432;-72
2022/03/03 01:42:56;;;;;;;11.50;7.73;;;;;;;-5.52;100.00;96697.63;4996967;28;20432;-72
2022/03/03 01:45:22;;;;;;;8.53;7.43;;;;;;;-5.56;100.00;96701.66;5011664;28;20473;-72
2022/03/03 01:47:49;;;;;;;10.57;7.87;;;;;;;-5.72;100.00;96685.00;4996453;28;20433;-72
2022/03/03 01:50:16;;;;;;;11.40;7.90;;;;;;;-5.49;100.00;96691.25;5011533;28;20444;-72
2022/03/03 01:52:43;;;;;;;8.60;7.37;;;;;;;-5.64;100.00;96668.44;4995492;28;20990;-72
2022/03/03 01:55:10;;;;;;;7.60;6.90;;;;;;;-5.73;100.00;96662.81;4996375;28;20468;-72
2022/03/03 01:57:39;;;;;;;10.30;7.43;;;;;;;-5.68;100.00;96660.38;4997546;28;20434;-72
2022/03/03 02:00:07;;;;;;;11.47;8.10;;;;;;;-5.62;100.00;96663.88;4998432;28;20476;-71
2022/03/03 02:02:38;;;;;;;11.33;8.67;;;;;;;-5.62;100.00;96692.19;4995951;28;20422;-72
2022/03/03 02:05:06;;;;;;;8.30;7.30;;;;;;;-6.01;100.00;96629.06;4984978;28;20973;-72
2022/03/03 02:07:33;;;;;;;11.53;7.00;;;;;;;-5.81;100.00;96688.03;4990967;28;20537;-72
2022/03/03 02:10:01;;;;;;;8.77;6.87;;;;;;;-5.66;100.00;96680.75;4991586;28;20447;-72
2022/03/03 02:12:28;;;;;;;9.80;8.70;;;;;;;-5.94;100.00;96672.75;4994189;28;20535;-72
2022/03/03 02:14:55;;;;;;;9.23;8.10;;;;;;;-6.07;100.00;96641.00;5010206;28;20505;-72
2022/03/03 02:17:22;;;;;;;8.57;7.73;;;;;;;-5.83;100.00;96667.66;4994250;28;20445;-72
2022/03/03 02:19:49;;;;;;;14.80;9.00;;;;;;;-6.02;100.00;96654.00;5010343;28;20779;-72
2022/03/03 02:22:16;;;;;;;11.30;8.87;;;;;;;-5.96;100.00;96671.19;5010262;28;20437;-72
2022/03/03 02:24:43;;;;;;;11.40;8.67;;;;;;;-5.84;100.00;96673.03;5010176;28;20483;-71
2022/03/03 02:27:10;;;;;;;12.90;8.30;;;;;;;-5.75;100.00;96674.31;4995112;28;20478;-72
2022/03/03 02:29:37;;;;;;;10.33;7.37;;;;;;;-5.99;100.00;96658.75;4997127;28;20505;-72
2022/03/03 02:32:05;;;;;;;9.90;7.60;;;;;;;-6.08;100.00;96665.16;4993854;28;20424;-72
2022/03/03 02:34:33;;;;;;;9.37;8.23;;;;;;;-6.24;100.00;96665.72;4993589;28;20480;-72
2022/03/03 02:37:00;;;;;;;8.40;7.60;;;;;;;-6.60;100.00;96633.75;4993464;28;20531;-72
2022/03/03 02:39:27;;;;;;;13.37;9.43;;;;;;;-6.21;100.00;96659.34;4993910;28;20457;-72
2022/03/03 02:41:53;;;;;;;15.40;12.23;;;;;;;-6.39;100.00;96629.25;4993587;28;20536;-72
2022/03/03 02:44:20;;;;;;;16.57;10.97;;;;;;;-6.15;100.00;96667.00;4994771;28;20460;-72
2022/03/03 02:46:47;;;;;;;13.30;10.80;;;;;;;-6.55;100.00;96636.47;5009705;28;20467;-72
2022/03/03 02:49:13;;;;;;;10.30;9.30;;;;;;;-6.53;100.00;96640.66;4993393;28;20436;-72
2022/03/03 02:51:40;;;;;;;9.40;8.40;;;;;;;-6.41;100.00;96644.09;5009780;28;20432;-72
2022/03/03 02:54:07;;;;;;;12.43;9.30;;;;;;;-6.23;100.00;96657.00;4993313;28;20476;-72
2022/03/03 02:57:53;;;;;;;12.77;8.27;;;;;;;-6.32;100.00;96624.81;4982791;28;20493;-72
2022/03/03 02:59:20;;;;;;;9.30;8.30;;;;;;;-6.33;100.00;96618.91;4977457;28;20444;-72
2022/03/03 03:01:47;;;;;;;11.10;8.53;;;;;;;-6.09;100.00;96634.50;5003705;28;20478;-72
2022/03/03 03:04:14;;;;;;;10.17;9.03;;;;;;;-6.08;100.00;96648.94;5009175;28;20461;-71
2022/03/03 03:06:41;;;;;;;8.50;7.60;;;;;;;-6.28;100.00;96621.63;4992813;28;20432;-72
2022/03/03 03:09:07;;;;;;;13.43;8.53;;;;;;;-6.30;100.00;96649.31;5009147;28;20824;-72
2022/03/03 03:11:34;;;;;;;15.00;9.90;;;;;;;-6.25;100.00;96651.28;4993100;28;20437;-72
2022/03/03 03:14:01;;;;;;;16.20;8.23;;;;;;;-6.27;100.00;96623.19;5009134;28;20965;-72
2022/03/03 03:16:27;;;;;;;9.93;8.57;;;;;;;-6.53;100.00;96597.72;4992772;28;20487;-72
2022/03/03 03:18:54;;;;;;;10.33;7.97;;;;;;;-6.53;100.00;96615.72;4993183;28;20478;-72
2022/03/03 03:21:21;;;;;;;8.90;7.90;;;;;;;-6.33;100.00;96636.91;5009001;28;20975;-72
2022/03/03 03:23:48;;;;;;;8.77;7.03;;;;;;;-6.36;100.00;96642.47;4992824;28;20468;-72
2022/03/03 03:26:15;;;;;;;13.60;8.87;;;;;;;-6.71;100.00;96593.31;5008946;28;20487;-72
2022/03/03 03:28:41;;;;;;;9.63;8.57;;;;;;;-6.43;100.00;96630.66;5009003;28;20516;-72
2022/03/03 03:31:08;;;;;;;12.23;9.40;;;;;;;-6.42;100.00;96632.22;5008922;28;20551;-72
2022/03/03 03:33:35;;;;;;;12.43;8.63;;;;;;;-6.45;100.00;96605.16;5008109;28;20490;-72
2022/03/03 03:36:02;;;;;;;10.83;8.17;;;;;;;-6.35;100.00;96626.03;4993130;28;20499;-72
2022/03/03 03:38:29;;;;;;;10.07;8.73;;;;;;;-6.37;100.00;96625.47;4991650;28;20444;-72
2022/03/03 03:40:56;;;;;;;12.20;8.63;;;;;;;-6.34;100.00;96608.81;5008184;28;20496;-72
2022/03/03 03:43:23;;;;;;;9.83;8.73;;;;;;;-6.34;100.00;96609.59;4993009;28;20506;-72
2022/03/03 03:45:49;;;;;;;10.00;8.60;;;;;;;-6.68;100.00;96568.97;4992859;28;21000;-72
2022/03/03 03:48:16;;;;;;;13.50;10.20;;;;;;;-6.59;100.00;96601.13;4992168;28;20433;-72
2022/03/03 03:50:43;;;;;;;14.53;10.73;;;;;;;-6.62;100.00;96581.78;4992893;28;20534;-72
2022/03/03 03:53:10;;;;;;;22.70;13.17;;;;;;;-6.78;100.00;96558.41;5008078;28;20458;-72
2022/03/03 03:55:36;;;;;;;13.93;11.50;;;;;;;-6.74;100.00;96572.38;4991496;28;20492;-72
2022/03/03 03:58:03;;;;;;;12.90;11.20;;;;;;;-6.88;100.00;96564.78;4993011;28;20840;-71
2022/03/03 04:00:30;;;;;;;10.50;9.33;;;;;;;-6.83;100.00;96565.94;4991688;28;21063;-72
2022/03/03 04:02:57;;;;;;;10.97;9.97;;;;;;;-7.09;100.00;96566.91;5008365;28;20475;-72
2022/03/03 04:05:24;;;;;;;12.17;7.87;;;;;;;-7.35;100.00;96573.78;5008214;28;20475;-72
2022/03/03 04:07:51;;;;;;;11.83;8.77;;;;;;;-7.48;100.00;96573.88;5007673;28;20441;-72
2022/03/03 04:10:17;;;;;;;13.87;9.33;;;;;;;-7.61;100.00;96554.22;5007791;28;20532;-72
2022/03/03 04:12:44;;;;;;;10.00;9.00;;;;;;;-7.54;100.00;96564.44;4991337;28;20543;-72
2022/03/03 04:15:11;;;;;;;10.27;9.23;;;;;;;-7.97;100.00;96507.81;5008148;28;20571;-72
2022/03/03 04:17:38;;;;;;;10.20;9.13;;;;;;;-7.96;100.00;96517.88;5007578;28;20459;-71
2022/03/03 04:20:06;;;;;;;8.50;7.50;;;;;;;-7.47;100.00;96549.78;5007630;28;20821;-71
2022/03/03 04:22:34;;;;;;;10.40;8.50;;;;;;;-7.43;100.00;96527.84;5007659;28;20459;-72
2022/03/03 04:25:01;;;;;;;12.80;8.63;;;;;;;-7.06;100.00;96563.94;4990942;28;20456;-72
2022/03/03 04:27:28;;;;;;;9.23;7.70;;;;;;;-7.42;100.00;96549.94;4992430;28;20435;-72
2022/03/03 04:29:55;;;;;;;14.30;9.20;;;;;;;-7.76;100.00;96528.81;4991065;28;20440;-72
2022/03/03 04:32:22;;;;;;;13.27;8.60;;;;;;;-7.69;100.00;96551.88;4955330;28;1192736;-71
2022/03/03 04:34:48;;;;;;;13.50;9.00;;;;;;;-7.89;100.00;96523.75;4991065;28;20228;-72
2022/03/03 04:37:15;;;;;;;10.50;8.30;;;;;;;-7.73;100.00;96516.59;4991804;28;20448;-72
2022/03/03 04:39:41;;;;;;;14.17;11.30;;;;;;;-7.62;100.00;96536.44;5007830;28;20538;-72
2022/03/03 04:42:08;;;;;;;19.43;11.17;;;;;;;-7.61;100.00;96535.44;4992836;28;20425;-72
2022/03/03 04:44:35;;;;;;;14.67;10.33;;;;;;;-7.38;100.00;96550.31;4992936;28;20544;-72
2022/03/03 04:47:02;;;;;;;18.53;11.10;;;;;;;-7.41;100.00;96536.13;5007697;28;20440;-72
2022/03/03 04:49:28;;;;;;;14.67;10.80;;;;;;;-7.17;100.00;96563.63;4991449;28;20448;-71
2022/03/03 04:51:55;;;;;;;19.03;12.53;;;;;;;-7.30;100.00;96522.63;4992757;28;20524;-72
2022/03/03 04:54:22;;;;;;;16.57;10.87;;;;;;;-7.12;100.00;96528.81;5007623;28;20567;-71
2022/03/03 04:56:48;;;;;;;13.77;10.87;;;;;;;-7.09;100.00;96518.09;5007529;28;20456;-72
2022/03/03 04:59:15;;;;;;;15.47;10.30;;;;;;;-6.96;100.00;96531.63;4990309;28;20491;-72
2022/03/03 05:01:42;;;;;;;12.90;10.20;;;;;;;-6.69;100.00;96545.03;5007679;28;20490;-71
2022/03/03 05:04:09;;;;;;;12.10;9.47;;;;;;;-6.74;100.00;96523.56;5007845;28;20471;-72
2022/03/03 05:06:35;;;;;;;14.33;10.60;;;;;;;-6.62;100.00;96548.34;5007480;28;20788;-72
2022/03/03 05:09:03;;;;;;;11.87;8.97;;;;;;;-7.00;100.00;96543.34;4992460;28;20463;-72
2022/03/03 05:11:29;;;;;;;14.47;9.20;;;;;;;-7.29;100.00;96549.09;5007302;28;20938;-72
2022/03/03 05:13:56;;;;;;;11.90;9.70;;;;;;;-7.17;100.00;96524.31;5007282;28;20448;-72
2022/03/03 05:16:23;;;;;;;11.50;9.27;;;;;;;-7.17;100.00;96530.22;5007354;28;20465;-71
2022/03/03 05:18:50;;;;;;;12.10;9.47;;;;;;;-7.20;100.00;96517.03;4979595;28;20798;-72
2022/03/03 05:21:16;;;;;;;12.40;9.17;;;;;;;-6.91;100.00;96536.16;4991079;28;20868;-71
2022/03/03 05:23:43;;;;;;;17.00;9.03;;;;;;;-7.43;100.00;96520.16;5007160;28;20994;-72
2022/03/03 05:26:10;;;;;;;9.97;8.50;;;;;;;-7.29;100.00;96524.19;4991004;28;20992;-71
2022/03/03 05:28:36;;;;;;;8.83;7.93;;;;;;;-7.35;100.00;96496.75;5007399;28;20983;-72
2022/03/03 05:31:03;;;;;;;10.57;8.63;;;;;;;-7.11;100.00;96538.88;5007103;28;20978;-72
2022/03/03 05:33:31;;;;;;;10.13;8.57;;;;;;;-7.28;100.00;96512.94;5007131;28;20465;-71
2022/03/03 05:36:05;;;;;;;12.53;8.47;;;;;;;-7.12;100.00;96519.31;4993054;28;20500;-71
2022/03/03 05:38:33;;;;;;;9.80;8.80;;;;;;;-7.03;100.00;96532.69;4998686;28;20437;-72
2022/03/03 05:41:01;;;;;;;9.57;8.50;;;;;;;-7.10;100.00;96539.66;4988338;28;21278;-72
2022/03/03 05:43:28;;;;;;;14.57;9.67;;;;;;;-7.06;100.00;96543.41;5007135;28;20486;-71
2022/03/03 05:45:55;;;;;;;12.10;10.50;;;;;;;-7.15;100.00;96517.19;4990714;28;20941;-71
2022/03/03 05:48:24;;;;;;;25.27;15.80;;;;;;;-7.13;100.00;96530.59;5007148;28;20810;-71
2022/03/03 05:50:50;;;;;;;14.53;13.00;;;;;;;-7.05;100.00;96545.75;5007151;28;20837;-71
2022/03/03 05:53:18;;;;;;;18.97;12.30;;;;;;;-7.31;100.00;96515.91;5007098;28;20466;-71
2022/03/03 05:55:49;;;;;;;18.17;12.50;;;;;;;-7.10;100.00;96544.78;4990919;28;20888;-71
2022/03/03 05:58:23;;;;;;;16.67;12.80;;;;;;;-7.39;100.00;96498.19;4990732;28;20446;-71
2022/03/03 06:00:56;;;;;;;38.93;25.00;;;;;;;-7.09;100.00;96543.78;4992204;28;20526;-72
2022/03/03 06:03:23;;;;;;;45.97;32.70;;;;;;;-7.20;100.00;96551.19;5007352;28;20460;-71
2022/03/03 06:05:53;;;;;;;31.90;25.40;;;;;;;-7.33;100.00;96543.59;4994401;28;20490;-71
2022/03/03 06:08:30;;;;;;;30.40;22.77;;;;;;;-7.32;100.00;96531.53;5007167;28;20436;-71
2022/03/03 06:11:02;;;;;;;23.30;18.47;;;;;;;-7.31;100.00;96551.06;4992449;28;20527;-71
2022/03/03 06:13:38;;;;;;;27.03;21.57;;;;;;;-7.30;100.00;96556.00;5010414;28;20468;-71
2022/03/03 06:16:09;;;;;;;18.93;16.10;;;;;;;-7.55;100.00;96502.06;4994127;28;20476;-71
2022/03/03 06:18:36;;;;;;;25.00;16.60;;;;;;;-7.23;100.00;96543.88;4977871;28;20440;-71
2022/03/03 06:21:03;;;;;;;15.07;12.17;;;;;;;-7.56;100.00;96494.56;4995282;28;20853;-71
2022/03/03 06:23:30;;;;;;;12.33;10.57;;;;;;;-7.38;100.00;96519.50;5010138;28;20896;-71
2022/03/03 06:26:03;;;;;;;13.97;11.07;;;;;;;-7.33;100.00;96522.25;4994218;28;20845;-71
2022/03/03 06:28:31;;;;;;;20.90;13.20;;;;;;;-7.09;100.00;96549.72;4993995;28;20443;-71
2022/03/03 06:30:57;;;;;;;13.27;11.87;;;;;;;-7.32;100.00;96514.34;4995111;28;20463;-71
2022/03/03 06:33:25;;;;;;;11.77;10.00;;;;;;;-7.13;100.00;96538.28;5009892;28;20464;-70
2022/03/03 06:35:52;;;;;;;15.43;11.70;;;;;;;-7.24;100.00;96523.56;4994806;28;20463;-71
2022/03/03 06:38:19;;;;;;;16.07;12.87;;;;;;;-7.23;100.00;96536.19;5009942;28;20535;-71
2022/03/03 06:40:45;;;;;;;24.00;14.77;;;;;;;-6.88;100.00;96548.59;4992580;28;20440;-70
2022/03/03 06:43:12;;;;;;;22.23;14.43;;;;;;;-6.90;100.00;96551.38;5009725;28;20452;-70
2022/03/03 06:45:39;;;;;;;25.27;15.23;;;;;;;-6.91;100.00;96551.56;4993463;28;20455;-71
2022/03/03 06:48:06;;;;;;;20.80;14.63;;;;;;;-6.84;100.00;96560.00;4993384;28;20451;-71
2022/03/03 06:50:38;;;;;;;26.90;17.60;;;;;;;-6.91;100.00;96513.81;4993713;28;20933;-71
2022/03/03 06:53:07;;;;;;;20.67;14.00;;;;;;;-6.65;100.00;96551.34;4993432;28;20559;-71
2022/03/03 06:55:36;;;;;;;16.70;13.30;;;;;;;-6.63;100.00;96557.06;5009663;28;20452;-71
2022/03/03 06:58:03;;;;;;;14.70;12.13;;;;;;;-6.58;100.00;96561.56;4993221;28;20436;-71
2022/03/03 07:00:34;;;;;;;17.90;12.03;;;;;;;-6.37;100.00;96562.97;5009313;28;20472;-71
2022/03/03 07:03:02;;;;;;;15.63;11.57;;;;;;;-6.36;100.00;96567.09;5009276;28;20501;-72
2022/03/03 07:05:30;;;;;;;18.43;13.37;;;;;;;-6.26;100.00;96569.97;5009281;28;21030;-71
2022/03/03 07:07:58;;;;;;;18.50;13.40;;;;;;;-6.12;100.00;96561.13;4994535;28;20979;-71
2022/03/03 07:10:25;;;;;;;20.30;13.83;;;;;;;-6.35;100.00;96563.53;4993042;28;20482;-71
2022/03/03 07:12:56;;;;;;;17.40;10.30;;;;;;;-6.33;100.00;96574.38;5009507;28;20447;-71
2022/03/03 07:15:25;;;;;;;19.77;12.20;;;;;;;-6.41;100.00;96552.31;5009299;28;20444;-71
2022/03/03 07:18:16;;;;;;;17.30;14.73;;;;;;;-6.29;100.00;96580.66;5009159;28;20851;-71
2022/03/03 07:21:02;;;;;;;14.87;13.07;;;;;;;-6.33;100.00;96551.25;4994521;28;20522;-72
2022/03/03 07:23:36;;;;;;;18.30;13.30;;;;;;;-6.00;100.00;96577.41;5008290;28;20510;-72
2022/03/03 07:26:07;;;;;;;22.23;15.60;;;;;;;-5.68;100.00;96565.13;4993146;28;20420;-72
2022/03/03 07:28:38;;;;;;;21.07;13.60;;;;;;;-5.35;100.00;96576.75;4992975;28;20459;-71
2022/03/03 07:31:07;;;;;;;20.33;14.03;;;;;;;-5.06;100.00;96577.75;4994077;28;20428;-71
2022/03/03 07:33:52;;;;;;;15.47;12.33;;;;;;;-4.77;100.00;96579.50;4992484;28;20475;-72
2022/03/03 07:36:24;;;;;;;18.50;12.80;;;;;;;-4.33;100.00;96574.00;4992483;28;20564;-72
2022/03/03 07:38:53;;;;;;;13.60;11.50;;;;;;;-4.04;100.00;96573.06;4993803;28;20850;-72
2022/03/03 07:41:21;;;;;;;14.03;12.53;;;;;;;-3.85;100.00;96573.72;5008520;28;20483;-71
2022/03/03 07:43:49;;;;;;;18.13;12.50;;;;;;;-3.90;100.00;96552.94;4992226;28;20492;-71
2022/03/03 07:46:16;;;;;;;14.30;11.50;;;;;;;-3.62;100.00;96565.88;5008595;28;20440;-71
2022/03/03 07:48:44;;;;;;;17.63;13.17;;;;;;;-3.54;100.00;96567.34;4992592;28;20874;-71
2022/03/03 07:51:12;;;;;;;17.77;13.70;;;;;;;-3.53;100.00;96555.19;4993441;28;20853;-71
2022/03/03 07:53:39;;;;;;;18.23;12.63;;;;;;;-3.44;100.00;96564.16;5008657;28;20492;-71
2022/03/03 07:56:09;;;;;;;17.10;12.47;;;;;;;-3.38;100.00;96561.41;4991918;28;20464;-71
2022/03/03 07:58:43;;;;;;;15.20;12.80;;;;;;;-3.34;100.00;96556.56;4993436;28;20468;-71
2022/03/03 08:01:12;;;;;;;18.27;12.70;;;;;;;-3.19;100.00;96562.03;4992124;28;20535;-71
2022/03/03 08:03:45;;;;;;;21.10;12.87;;;;;;;-3.14;100.00;96553.56;5008078;28;20492;-71
2022/03/03 08:06:14;;;;;;;17.37;13.13;;;;;;;-3.11;100.00;96553.09;5008459;28;20528;-71
2022/03/03 08:08:41;;;;;;;19.90;14.20;;;;;;;-3.12;100.00;96530.84;4992443;28;20450;-72
2022/03/03 08:11:09;;;;;;;16.23;12.20;;;;;;;-3.03;100.00;96537.19;4992704;28;20465;-72
2022/03/03 08:13:36;;;;;;;19.97;13.67;;;;;;;-2.85;100.00;96536.19;4991997;28;20578;-72
2022/03/03 08:16:03;;;;;;;20.13;13.20;;;;;;;-2.89;100.00;96525.53;4982612;28;20475;-72
2022/03/03 08:18:32;;;;;;;16.37;14.57;;;;;;;-2.90;100.00;96495.50;4992493;28;20495;-73
2022/03/03 08:21:01;;;;;;;20.53;16.03;;;;;;;-2.54;100.00;96547.75;5008622;28;20449;-72
2022/03/03 08:23:28;;;;;;;28.90;25.50;;;;;;;-2.49;100.00;96542.66;5008327;28;20488;-72
2022/03/03 08:25:57;;;;;;;18.43;12.90;;;;;;;-2.41;100.00;96537.06;5008166;28;20437;-71
2022/03/03 08:28:24;;;;;;;21.13;13.70;;;;;;;-2.22;100.00;96540.19;4993182;28;20959;-72
2022/03/03 08:30:58;;;;;;;18.60;13.47;;;;;;;-2.05;100.00;96535.72;5008020;28;20445;-72
2022/03/03 08:33:39;;;;;;;23.60;14.87;;;;;;;-1.79;100.00;96552.38;5007917;28;20468;-73
2022/03/03 08:36:37;;;;;;;13.13;11.40;;;;;;;-1.87;100.00;96519.09;4993341;28;20971;-71
2022/03/03 08:39:06;;;;;;;15.90;13.33;;;;;;;-1.63;100.00;96542.94;4989313;28;20440;-72
2022/03/03 08:41:38;;;;;;;26.50;13.27;;;;;;;-1.71;100.00;96528.63;4993063;28;20514;-72
2022/03/03 08:44:07;;;;;;;16.13;13.30;;;;;;;-1.56;100.00;96531.38;5007851;28;20503;-72
2022/03/03 08:46:37;;;;;;;17.27;13.03;;;;;;;-1.58;100.00;96537.84;5007655;28;20442;-72
2022/03/03 08:49:06;;;;;;;14.77;11.60;;;;;;;-1.60;100.00;96535.50;4991784;28;20444;-72
2022/03/03 08:51:33;;;;;;;18.10;13.97;;;;;;;-1.66;100.00;96510.53;4992917;28;21005;-72
2022/03/03 08:54:00;;;;;;;20.20;14.60;;;;;;;-1.12;100.00;96530.50;4991661;28;20464;-73
2022/03/03 08:56:27;;;;;;;20.90;12.27;;;;;;;-1.06;100.00;96534.72;5008462;28;20468;-73
2022/03/03 08:58:54;;;;;;;16.53;14.67;;;;;;;-1.26;100.00;96504.16;4991633;28;20979;-72
2022/03/03 09:01:22;;;;;;;16.73;13.93;;;;;;;-0.94;100.00;96523.09;4993409;28;20425;-73
2022/03/03 09:03:49;;;;;;;21.20;14.33;;;;;;;-1.01;100.00;96503.59;4991748;28;20524;-73
2022/03/03 09:06:17;;;;;;;14.50;13.00;;;;;;;-0.67;100.00;96528.28;4991431;28;20444;-72
2022/03/03 09:08:44;;;;;;;24.03;14.73;;;;;;;-0.84;100.00;96522.41;4991533;28;20797;-73
2022/03/03 09:11:11;;;;;;;18.67;14.80;;;;;;;-1.10;100.00;96512.84;4991645;28;20437;-72
2022/03/03 09:13:39;;;;;;;19.07;13.30;;;;;;;-1.04;100.00;96514.47;4992501;28;20483;-72
2022/03/03 09:16:05;;;;;;;18.40;13.70;;;;;;;-0.64;100.00;96530.34;5007413;28;20452;-72
2022/03/03 09:18:34;;;;;;;22.43;14.23;;;;;;;-0.38;100.00;96525.31;5007816;28;20824;-72
2022/03/03 09:21:00;;;;;;;16.33;12.50;;;;;;;-0.22;100.00;96528.78;4991816;28;20849;-73
2022/03/03 09:23:27;;;;;;;16.33;12.60;;;;;;;-0.19;100.00;96517.88;5007878;28;20468;-73
2022/03/03 09:25:54;;;;;;;20.90;14.50;;;;;;;-0.06;100.00;96505.22;5008207;28;20504;-73
2022/03/03 09:28:21;;;;;;;18.03;14.53;;;;;;;0.01;100.00;96486.81;5007748;28;20425;-74
2022/03/03 09:30:49;;;;;;;16.40;13.50;;;;;;;-0.02;100.00;96471.69;4992324;28;20469;-74
2022/03/03 09:33:16;;;;;;;17.40;13.57;;;;;;;0.32;100.00;96512.91;4992810;28;20479;-73
2022/03/03 09:35:43;;;;;;;16.40;13.33;;;;;;;0.34;100.00;96480.41;4991192;28;20468;-73
2022/03/03 09:38:09;;;;;;;17.80;12.60;;;;;;;0.65;100.00;96506.44;4991276;28;20457;-72
2022/03/03 09:40:36;;;;;;;19.90;14.03;;;;;;;0.45;100.00;96489.78;4992840;28;20824;-72
2022/03/03 09:43:05;;;;;;;27.33;19.10;;;;;;;0.37;100.00;96461.66;4991049;28;20899;-72
2022/03/03 09:45:33;;;;;;;53.83;35.33;;;;;;;0.76;100.00;96498.41;4993697;28;20433;-73
2022/03/03 09:48:05;;;;;;;82.43;55.97;;;;;;;0.46;100.00;96441.16;4997011;28;20435;-74
2022/03/03 09:50:34;;;;;;;17.10;11.53;;;;;;;0.92;97.04;96507.00;5011138;28;20826;-73
2022/03/03 09:53:09;;;;;;;17.87;11.63;;;;;;;1.01;97.96;96500.25;4995108;28;20459;-73
2022/03/03 09:55:37;;;;;;;17.07;13.20;;;;;;;0.81;97.68;96458.63;4994954;28;20439;-73
2022/03/03 09:58:06;;;;;;;16.40;10.60;;;;;;;1.12;96.74;96506.25;5010872;28;20462;-72
2022/03/03 10:00:40;;;;;;;20.90;11.67;;;;;;;1.13;95.91;96492.94;5010955;28;20466;-72
2022/03/03 10:03:14;;;;;;;15.40;12.80;;;;;;;0.99;95.51;96465.09;4996947;28;20460;-72
2022/03/03 10:05:51;;;;;;;16.07;14.23;;;;;;;1.45;97.17;96500.47;5010875;28;20823;-72
2022/03/03 10:08:24;;;;;;;15.10;12.37;;;;;;;1.56;91.91;96492.63;4994483;28;20427;-73
2022/03/03 10:10:53;;;;;;;13.03;11.27;;;;;;;1.68;91.47;96491.31;5011130;28;20800;-73
2022/03/03 10:13:21;;;;;;;14.73;10.70;;;;;;;1.71;90.04;96498.59;5010592;28;20500;-74
2022/03/03 10:15:53;;;;;;;17.77;11.90;;;;;;;1.80;90.60;96480.59;5011448;28;20429;-74
2022/03/03 10:18:21;;;;;;;15.17;12.23;;;;;;;1.92;85.10;96496.72;4994556;28;20484;-74
2022/03/03 10:20:53;;;;;;;15.60;10.97;;;;;;;2.02;84.93;96477.66;4995843;28;20465;-74
2022/03/03 10:23:27;;;;;;;14.73;12.17;;;;;;;2.06;83.82;96482.03;5010785;28;20473;-74
2022/03/03 10:25:57;;;;;;;23.10;11.83;;;;;;;1.91;82.40;96463.09;4996301;28;20427;-74
2022/03/03 10:28:25;;;;;;;15.27;11.07;;;;;;;2.08;80.48;96487.78;5011019;28;20441;-74
2022/03/03 10:30:58;;;;;;;17.30;12.27;;;;;;;2.15;81.77;96484.88;5011068;28;20541;-75
2022/03/03 10:33:31;;;;;;;11.10;9.20;;;;;;;2.48;80.87;96464.34;4996451;28;20561;-75
2022/03/03 10:36:01;;;;;;;17.00;12.17;;;;;;;2.79;79.86;96476.13;5015019;28;20438;-74
2022/03/03 10:38:28;;;;;;;12.60;9.70;;;;;;;2.68;77.18;96459.00;4996075;28;20508;-74
2022/03/03 10:40:57;;;;;;;11.80;10.60;;;;;;;3.02;76.58;96466.84;5013056;28;20437;-73
2022/03/03 10:43:25;;;;;;;12.10;10.50;;;;;;;2.88;76.99;96447.63;5004122;28;20461;-73
2022/03/03 10:46:00;;;;;;;13.70;11.70;;;;;;;2.75;74.87;96458.69;5000425;28;20924;-72
2022/03/03 10:48:30;;;;;;;17.30;11.50;;;;;;;2.74;76.20;96457.91;4996096;28;20426;-73
2022/03/03 10:51:00;;;;;;;13.33;11.23;;;;;;;2.75;75.43;96441.19;4995887;28;20510;-73
2022/03/03 10:53:33;;;;;;;12.80;10.87;;;;;;;3.13;73.13;96464.91;4999027;28;20466;-73
2022/03/03 10:56:08;;;;;;;13.63;11.30;;;;;;;3.16;73.07;96464.38;4998463;28;20482;-73
2022/03/03 10:58:55;;;;;;;13.87;12.27;;;;;;;3.08;71.08;96444.06;4978431;28;21022;-74
2022/03/03 11:01:27;;;;;;;14.13;11.63;;;;;;;3.28;70.30;96458.78;4996013;28;20432;-74
2022/03/03 11:03:55;;;;;;;18.83;13.27;;;;;;;3.49;68.59;96458.31;4997125;28;20449;-74
2022/03/03 11:06:28;;;;;;;28.60;21.50;;;;;;;3.78;68.21;96454.88;5010489;28;20429;-74
2022/03/03 11:08:57;;;;;;;13.77;9.83;;;;;;;3.68;65.93;96431.44;4977923;28;20490;-73
2022/03/03 11:11:24;;;;;;;15.60;12.47;;;;;;;3.73;64.94;96458.28;4995182;28;20933;-73
2022/03/03 11:13:52;;;;;;;18.37;13.50;;;;;;;3.88;64.41;96452.13;4995050;28;20446;-73
2022/03/03 11:16:25;;;;;;;15.60;11.90;;;;;;;4.01;62.92;96443.59;4994251;28;20476;-73
2022/03/03 11:18:54;;;;;;;15.07;11.60;;;;;;;3.81;61.52;96396.78;4995589;28;20461;-73
2022/03/03 11:21:21;;;;;;;14.43;11.13;;;;;;;4.12;62.39;96442.41;5009994;28;20555;-73
2022/03/03 11:23:59;;;;;;;14.80;10.63;;;;;;;3.95;61.11;96409.94;5009458;28;20902;-74